sensor_id;sensor_type;location;lat;lon;timestamp;P1;durP1;ratioP1;P2;durP2;ratioP2
19897;SDS011;10111;50.814;4.572;2022-11-20T00:01:25;26.80;;;16.37;;
19897;SDS011;10111;50.814;4.572;2022-11-20T00:03:51;32.60;;;17.90;;
19897;SDS011;10111;50.814;4.572;2022-11-20T00:06:18;36.90;;;18.20;;
19897;SDS011;10111;50.814;4.572;2022-11-20T00:08:45;31.47;;;18.77;;
19897;SDS011;10111;50.814;4.572;2022-11-20T00:11:13;31.07;;;19.30;;
19897;SDS011;10111;50.814;4.572;2022-11-20T00:13:47;33.60;;;18.73;;
19897;SDS011;10111;50.814;4.572;2022-11-20T00:16:15;27.63;;;17.87;;
19897;SDS011;10111;50.814;4.572;2022-11-20T00:18:42;32.37;;;17.87;;
19897;SDS011;10111;50.814;4.572;2022-11-20T00:21:15;31.80;;;18.00;;
19897;SDS011;10111;50.814;4.572;2022-11-20T00:23:46;28.87;;;15.80;;
19897;SDS011;10111;50.814;4.572;2022-11-20T00:26:13;34.93;;;18.47;;
19897;SDS011;10111;50.814;4.572;2022-11-20T00:28:40;34.77;;;18.50;;
19897;SDS011;10111;50.814;4.572;2022-11-20T00:31:08;32.57;;;18.27;;
19897;SDS011;10111;50.814;4.572;2022-11-20T00:33:39;37.03;;;18.90;;
19897;SDS011;10111;50.814;4.572;2022-11-20T00:36:06;31.57;;;17.50;;
19897;SDS011;10111;50.814;4.572;2022-11-20T00:38:34;38.07;;;19.20;;
19897;SDS011;10111;50.814;4.572;2022-11-20T00:41:01;31.53;;;17.97;;
19897;SDS011;10111;50.814;4.572;2022-11-20T00:43:29;33.43;;;18.10;;
19897;SDS011;10111;50.814;4.572;2022-11-20T00:46:01;30.53;;;19.03;;
19897;SDS011;10111;50.814;4.572;2022-11-20T00:48:32;33.60;;;19.10;;
19897;SDS011;10111;50.814;4.572;2022-11-20T00:50:58;35.63;;;19.40;;
19897;SDS011;10111;50.814;4.572;2022-11-20T00:53:24;33.43;;;19.37;;
19897;SDS011;10111;50.814;4.572;2022-11-20T00:55:53;38.83;;;19.90;;
19897;SDS011;10111;50.814;4.572;2022-11-20T00:58:30;34.30;;;18.90;;
19897;SDS011;10111;50.814;4.572;2022-11-20T01:01:03;34.97;;;20.33;;
19897;SDS011;10111;50.814;4.572;2022-11-20T01:03:50;40.70;;;21.23;;
19897;SDS011;10111;50.814;4.572;2022-11-20T01:06:21;35.30;;;19.87;;
19897;SDS011;10111;50.814;4.572;2022-11-20T01:08:56;35.17;;;19.73;;
19897;SDS011;10111;50.814;4.572;2022-11-20T01:11:25;35.93;;;19.43;;
19897;SDS011;10111;50.814;4.572;2022-11-20T01:13:52;33.80;;;19.20;;
19897;SDS011;10111;50.814;4.572;2022-11-20T01:16:26;37.50;;;18.97;;
19897;SDS011;10111;50.814;4.572;2022-11-20T01:18:55;36.10;;;19.40;;
19897;SDS011;10111;50.814;4.572;2022-11-20T01:21:23;31.90;;;19.00;;
19897;SDS011;10111;50.814;4.572;2022-11-20T01:23:51;37.97;;;20.30;;
19897;SDS011;10111;50.814;4.572;2022-11-20T01:26:18;36.07;;;17.97;;
19897;SDS011;10111;50.814;4.572;2022-11-20T01:28:46;33.80;;;19.40;;
19897;SDS011;10111;50.814;4.572;2022-11-20T01:31:14;37.90;;;19.03;;
19897;SDS011;10111;50.814;4.572;2022-11-20T01:33:46;36.93;;;18.33;;
19897;SDS011;10111;50.814;4.572;2022-11-20T01:36:13;39.33;;;21.03;;
19897;SDS011;10111;50.814;4.572;2022-11-20T01:38:40;34.50;;;18.73;;
19897;SDS011;10111;50.814;4.572;2022-11-20T01:41:06;30.87;;;18.03;;
19897;SDS011;10111;50.814;4.572;2022-11-20T01:43:32;39.73;;;20.10;;
19897;SDS011;10111;50.814;4.572;2022-11-20T01:46:08;35.13;;;20.07;;
19897;SDS011;10111;50.814;4.572;2022-11-20T01:51:23;33.47;;;19.63;;
19897;SDS011;10111;50.814;4.572;2022-11-20T01:54:00;39.30;;;21.87;;
19897;SDS011;10111;50.814;4.572;2022-11-20T01:56:28;36.27;;;19.93;;
19897;SDS011;10111;50.814;4.572;2022-11-20T01:58:56;35.63;;;19.37;;
19897;SDS011;10111;50.814;4.572;2022-11-20T02:01:25;39.60;;;19.87;;
19897;SDS011;10111;50.814;4.572;2022-11-20T02:03:51;33.87;;;19.03;;
19897;SDS011;10111;50.814;4.572;2022-11-20T02:09:09;38.63;;;20.07;;
19897;SDS011;10111;50.814;4.572;2022-11-20T02:11:36;36.57;;;20.37;;
19897;SDS011;10111;50.814;4.572;2022-11-20T02:14:02;37.07;;;19.50;;
19897;SDS011;10111;50.814;4.572;2022-11-20T02:18:55;34.43;;;18.03;;
19897;SDS011;10111;50.814;4.572;2022-11-20T02:24:14;32.87;;;18.97;;
19897;SDS011;10111;50.814;4.572;2022-11-20T02:29:41;36.63;;;18.43;;
19897;SDS011;10111;50.814;4.572;2022-11-20T02:32:44;41.57;;;21.73;;
19897;SDS011;10111;50.814;4.572;2022-11-20T02:35:08;32.50;;;18.67;;
19897;SDS011;10111;50.814;4.572;2022-11-20T02:37:43;35.63;;;20.03;;
19897;SDS011;10111;50.814;4.572;2022-11-20T02:40:10;39.73;;;21.03;;
19897;SDS011;10111;50.814;4.572;2022-11-20T02:42:36;45.40;;;22.37;;
19897;SDS011;10111;50.814;4.572;2022-11-20T02:45:02;41.07;;;19.93;;
19897;SDS011;10111;50.814;4.572;2022-11-20T02:47:32;44.63;;;21.77;;
19897;SDS011;10111;50.814;4.572;2022-11-20T02:49:58;37.77;;;20.67;;
19897;SDS011;10111;50.814;4.572;2022-11-20T02:52:24;41.07;;;20.23;;
19897;SDS011;10111;50.814;4.572;2022-11-20T02:54:50;42.93;;;21.10;;
19897;SDS011;10111;50.814;4.572;2022-11-20T02:57:16;41.47;;;21.00;;
19897;SDS011;10111;50.814;4.572;2022-11-20T02:59:41;51.57;;;20.77;;
19897;SDS011;10111;50.814;4.572;2022-11-20T03:02:07;49.80;;;23.27;;
19897;SDS011;10111;50.814;4.572;2022-11-20T03:04:32;42.47;;;20.33;;
19897;SDS011;10111;50.814;4.572;2022-11-20T03:06:58;37.73;;;19.70;;
19897;SDS011;10111;50.814;4.572;2022-11-20T03:09:24;39.40;;;20.03;;
19897;SDS011;10111;50.814;4.572;2022-11-20T03:11:49;38.43;;;19.63;;
19897;SDS011;10111;50.814;4.572;2022-11-20T03:14:15;37.67;;;19.33;;
19897;SDS011;10111;50.814;4.572;2022-11-20T03:16:40;42.20;;;19.43;;
19897;SDS011;10111;50.814;4.572;2022-11-20T03:19:06;40.20;;;19.00;;
19897;SDS011;10111;50.814;4.572;2022-11-20T03:21:35;35.60;;;18.83;;
19897;SDS011;10111;50.814;4.572;2022-11-20T03:24:01;31.77;;;17.93;;
19897;SDS011;10111;50.814;4.572;2022-11-20T03:26:27;29.33;;;17.03;;
19897;SDS011;10111;50.814;4.572;2022-11-20T03:29:00;38.10;;;18.83;;
19897;SDS011;10111;50.814;4.572;2022-11-20T03:31:28;36.83;;;17.33;;
19897;SDS011;10111;50.814;4.572;2022-11-20T03:33:56;29.80;;;16.03;;
19897;SDS011;10111;50.814;4.572;2022-11-20T03:36:23;28.27;;;15.83;;
19897;SDS011;10111;50.814;4.572;2022-11-20T03:38:48;29.03;;;15.83;;
19897;SDS011;10111;50.814;4.572;2022-11-20T03:41:16;29.63;;;15.20;;
19897;SDS011;10111;50.814;4.572;2022-11-20T03:44:03;32.97;;;16.77;;
19897;SDS011;10111;50.814;4.572;2022-11-20T03:46:30;27.30;;;14.60;;
19897;SDS011;10111;50.814;4.572;2022-11-20T03:48:57;28.20;;;15.00;;
19897;SDS011;10111;50.814;4.572;2022-11-20T03:51:23;28.97;;;15.43;;
19897;SDS011;10111;50.814;4.572;2022-11-20T03:53:52;24.00;;;13.60;;
19897;SDS011;10111;50.814;4.572;2022-11-20T03:56:20;24.37;;;11.77;;
19897;SDS011;10111;50.814;4.572;2022-11-20T03:58:49;26.33;;;13.50;;
19897;SDS011;10111;50.814;4.572;2022-11-20T04:01:16;23.60;;;12.73;;
19897;SDS011;10111;50.814;4.572;2022-11-20T04:03:47;27.57;;;13.93;;
19897;SDS011;10111;50.814;4.572;2022-11-20T04:06:20;28.13;;;13.57;;
19897;SDS011;10111;50.814;4.572;2022-11-20T04:08:50;24.53;;;14.23;;
19897;SDS011;10111;50.814;4.572;2022-11-20T04:11:23;29.00;;;14.70;;
19897;SDS011;10111;50.814;4.572;2022-11-20T04:13:55;26.30;;;13.67;;
19897;SDS011;10111;50.814;4.572;2022-11-20T04:16:23;28.37;;;14.40;;
19897;SDS011;10111;50.814;4.572;2022-11-20T04:18:53;31.87;;;15.80;;
19897;SDS011;10111;50.814;4.572;2022-11-20T04:21:20;26.50;;;14.27;;
19897;SDS011;10111;50.814;4.572;2022-11-20T04:23:46;29.10;;;13.47;;
19897;SDS011;10111;50.814;4.572;2022-11-20T04:26:12;21.23;;;12.80;;
19897;SDS011;10111;50.814;4.572;2022-11-20T04:28:37;27.70;;;14.47;;
19897;SDS011;10111;50.814;4.572;2022-11-20T04:31:10;28.33;;;14.10;;
19897;SDS011;10111;50.814;4.572;2022-11-20T04:33:38;31.70;;;14.13;;
19897;SDS011;10111;50.814;4.572;2022-11-20T04:36:14;31.60;;;14.10;;
19897;SDS011;10111;50.814;4.572;2022-11-20T04:38:42;27.90;;;13.90;;
19897;SDS011;10111;50.814;4.572;2022-11-20T04:41:09;27.83;;;13.63;;
19897;SDS011;10111;50.814;4.572;2022-11-20T04:43:40;29.40;;;13.80;;
19897;SDS011;10111;50.814;4.572;2022-11-20T04:46:06;28.73;;;15.80;;
19897;SDS011;10111;50.814;4.572;2022-11-20T04:48:32;25.63;;;14.30;;
19897;SDS011;10111;50.814;4.572;2022-11-20T04:50:57;30.57;;;14.33;;
19897;SDS011;10111;50.814;4.572;2022-11-20T04:53:27;27.00;;;13.70;;
19897;SDS011;10111;50.814;4.572;2022-11-20T04:55:58;33.40;;;15.47;;
19897;SDS011;10111;50.814;4.572;2022-11-20T04:58:25;27.53;;;14.63;;
19897;SDS011;10111;50.814;4.572;2022-11-20T05:00:50;32.13;;;14.83;;
19897;SDS011;10111;50.814;4.572;2022-11-20T05:03:16;31.07;;;16.27;;
19897;SDS011;10111;50.814;4.572;2022-11-20T05:05:42;27.10;;;14.13;;
19897;SDS011;10111;50.814;4.572;2022-11-20T05:08:08;33.23;;;14.50;;
19897;SDS011;10111;50.814;4.572;2022-11-20T05:10:33;32.87;;;15.50;;
19897;SDS011;10111;50.814;4.572;2022-11-20T05:12:59;29.37;;;14.07;;
19897;SDS011;10111;50.814;4.572;2022-11-20T05:15:24;32.00;;;14.83;;
19897;SDS011;10111;50.814;4.572;2022-11-20T05:17:50;32.40;;;16.63;;
19897;SDS011;10111;50.814;4.572;2022-11-20T05:20:17;28.70;;;14.33;;
19897;SDS011;10111;50.814;4.572;2022-11-20T05:22:43;33.27;;;16.10;;
19897;SDS011;10111;50.814;4.572;2022-11-20T05:25:09;31.93;;;14.80;;
19897;SDS011;10111;50.814;4.572;2022-11-20T05:27:36;33.67;;;15.47;;
19897;SDS011;10111;50.814;4.572;2022-11-20T05:30:02;36.87;;;15.80;;
19897;SDS011;10111;50.814;4.572;2022-11-20T05:32:28;31.83;;;16.23;;
19897;SDS011;10111;50.814;4.572;2022-11-20T05:34:54;40.80;;;16.97;;
19897;SDS011;10111;50.814;4.572;2022-11-20T05:37:19;32.37;;;16.03;;
19897;SDS011;10111;50.814;4.572;2022-11-20T05:39:45;35.80;;;17.17;;
19897;SDS011;10111;50.814;4.572;2022-11-20T05:42:11;38.73;;;16.20;;
19897;SDS011;10111;50.814;4.572;2022-11-20T05:44:55;33.27;;;15.53;;
19897;SDS011;10111;50.814;4.572;2022-11-20T05:47:25;35.17;;;16.03;;
19897;SDS011;10111;50.814;4.572;2022-11-20T05:49:51;35.57;;;15.33;;
19897;SDS011;10111;50.814;4.572;2022-11-20T05:52:17;38.03;;;16.77;;
19897;SDS011;10111;50.814;4.572;2022-11-20T05:54:42;32.80;;;16.97;;
19897;SDS011;10111;50.814;4.572;2022-11-20T05:57:08;40.17;;;17.47;;
19897;SDS011;10111;50.814;4.572;2022-11-20T05:59:34;38.47;;;16.87;;
19897;SDS011;10111;50.814;4.572;2022-11-20T06:01:59;43.73;;;18.90;;
19897;SDS011;10111;50.814;4.572;2022-11-20T06:04:25;41.70;;;17.77;;
19897;SDS011;10111;50.814;4.572;2022-11-20T06:06:50;45.67;;;18.07;;
19897;SDS011;10111;50.814;4.572;2022-11-20T06:09:16;47.23;;;18.83;;
19897;SDS011;10111;50.814;4.572;2022-11-20T06:11:42;42.10;;;16.10;;
19897;SDS011;10111;50.814;4.572;2022-11-20T06:14:07;39.80;;;16.13;;
19897;SDS011;10111;50.814;4.572;2022-11-20T06:16:33;43.50;;;18.00;;
19897;SDS011;10111;50.814;4.572;2022-11-20T06:18:58;42.27;;;18.07;;
19897;SDS011;10111;50.814;4.572;2022-11-20T06:21:24;42.90;;;19.97;;
19897;SDS011;10111;50.814;4.572;2022-11-20T06:23:50;40.43;;;16.33;;
19897;SDS011;10111;50.814;4.572;2022-11-20T06:26:22;46.30;;;19.13;;
19897;SDS011;10111;50.814;4.572;2022-11-20T06:28:49;46.07;;;19.27;;
19897;SDS011;10111;50.814;4.572;2022-11-20T06:31:15;51.83;;;18.63;;
19897;SDS011;10111;50.814;4.572;2022-11-20T06:33:43;45.33;;;18.60;;
19897;SDS011;10111;50.814;4.572;2022-11-20T06:36:09;42.57;;;17.97;;
19897;SDS011;10111;50.814;4.572;2022-11-20T06:38:37;42.63;;;17.87;;
19897;SDS011;10111;50.814;4.572;2022-11-20T06:41:04;39.27;;;18.23;;
19897;SDS011;10111;50.814;4.572;2022-11-20T06:43:31;43.43;;;18.13;;
19897;SDS011;10111;50.814;4.572;2022-11-20T06:45:57;38.90;;;19.00;;
19897;SDS011;10111;50.814;4.572;2022-11-20T06:48:23;44.47;;;17.77;;
19897;SDS011;10111;50.814;4.572;2022-11-20T06:50:51;56.40;;;19.87;;
19897;SDS011;10111;50.814;4.572;2022-11-20T06:53:16;43.97;;;18.33;;
19897;SDS011;10111;50.814;4.572;2022-11-20T06:55:46;46.57;;;19.47;;
19897;SDS011;10111;50.814;4.572;2022-11-20T06:58:13;41.17;;;17.90;;
19897;SDS011;10111;50.814;4.572;2022-11-20T07:00:40;41.67;;;17.00;;
19897;SDS011;10111;50.814;4.572;2022-11-20T07:03:06;46.57;;;19.17;;
19897;SDS011;10111;50.814;4.572;2022-11-20T07:05:34;42.57;;;18.57;;
19897;SDS011;10111;50.814;4.572;2022-11-20T07:08:00;50.20;;;19.97;;
19897;SDS011;10111;50.814;4.572;2022-11-20T07:10:26;44.97;;;19.37;;
19897;SDS011;10111;50.814;4.572;2022-11-20T07:12:52;39.53;;;15.37;;
19897;SDS011;10111;50.814;4.572;2022-11-20T07:15:19;47.37;;;19.87;;
19897;SDS011;10111;50.814;4.572;2022-11-20T07:17:46;47.67;;;20.60;;
19897;SDS011;10111;50.814;4.572;2022-11-20T07:20:12;49.73;;;20.17;;
19897;SDS011;10111;50.814;4.572;2022-11-20T07:22:38;44.83;;;19.53;;
19897;SDS011;10111;50.814;4.572;2022-11-20T07:25:04;51.13;;;20.57;;
19897;SDS011;10111;50.814;4.572;2022-11-20T07:27:30;45.20;;;17.53;;
19897;SDS011;10111;50.814;4.572;2022-11-20T07:29:56;45.43;;;19.90;;
19897;SDS011;10111;50.814;4.572;2022-11-20T07:32:21;46.43;;;20.23;;
19897;SDS011;10111;50.814;4.572;2022-11-20T07:34:47;54.57;;;20.83;;
19897;SDS011;10111;50.814;4.572;2022-11-20T07:37:13;44.53;;;20.00;;
19897;SDS011;10111;50.814;4.572;2022-11-20T07:39:39;46.87;;;18.83;;
19897;SDS011;10111;50.814;4.572;2022-11-20T07:42:06;49.37;;;17.77;;
19897;SDS011;10111;50.814;4.572;2022-11-20T07:44:32;45.10;;;19.43;;
19897;SDS011;10111;50.814;4.572;2022-11-20T07:46:57;47.80;;;18.03;;
19897;SDS011;10111;50.814;4.572;2022-11-20T07:49:23;44.03;;;19.20;;
19897;SDS011;10111;50.814;4.572;2022-11-20T07:51:52;41.17;;;18.17;;
19897;SDS011;10111;50.814;4.572;2022-11-20T07:54:18;44.03;;;21.67;;
19897;SDS011;10111;50.814;4.572;2022-11-20T07:56:45;45.13;;;19.00;;
19897;SDS011;10111;50.814;4.572;2022-11-20T07:59:11;44.63;;;19.90;;
19897;SDS011;10111;50.814;4.572;2022-11-20T08:01:37;45.43;;;19.93;;
19897;SDS011;10111;50.814;4.572;2022-11-20T08:04:03;41.17;;;19.80;;
19897;SDS011;10111;50.814;4.572;2022-11-20T08:06:29;45.40;;;18.73;;
19897;SDS011;10111;50.814;4.572;2022-11-20T08:08:55;49.03;;;20.10;;
19897;SDS011;10111;50.814;4.572;2022-11-20T08:11:20;49.13;;;19.93;;
19897;SDS011;10111;50.814;4.572;2022-11-20T08:14:04;45.97;;;20.97;;
19897;SDS011;10111;50.814;4.572;2022-11-20T08:16:46;45.10;;;17.70;;
19897;SDS011;10111;50.814;4.572;2022-11-20T08:19:13;42.90;;;18.70;;
19897;SDS011;10111;50.814;4.572;2022-11-20T08:21:40;39.97;;;17.77;;
19897;SDS011;10111;50.814;4.572;2022-11-20T08:24:06;44.67;;;18.33;;
19897;SDS011;10111;50.814;4.572;2022-11-20T08:26:32;40.60;;;18.17;;
19897;SDS011;10111;50.814;4.572;2022-11-20T08:28:59;43.57;;;18.80;;
19897;SDS011;10111;50.814;4.572;2022-11-20T08:31:25;44.00;;;15.73;;
19897;SDS011;10111;50.814;4.572;2022-11-20T08:33:52;45.70;;;18.70;;
19897;SDS011;10111;50.814;4.572;2022-11-20T08:36:18;43.20;;;17.77;;
19897;SDS011;10111;50.814;4.572;2022-11-20T08:38:49;42.20;;;17.80;;
19897;SDS011;10111;50.814;4.572;2022-11-20T08:41:16;41.30;;;17.60;;
19897;SDS011;10111;50.814;4.572;2022-11-20T08:43:57;42.77;;;17.60;;
19897;SDS011;10111;50.814;4.572;2022-11-20T08:46:39;43.47;;;17.90;;
19897;SDS011;10111;50.814;4.572;2022-11-20T08:49:10;41.00;;;17.30;;
19897;SDS011;10111;50.814;4.572;2022-11-20T08:51:37;47.07;;;17.47;;
19897;SDS011;10111;50.814;4.572;2022-11-20T08:54:03;40.57;;;19.23;;
19897;SDS011;10111;50.814;4.572;2022-11-20T08:56:30;39.93;;;18.17;;
19897;SDS011;10111;50.814;4.572;2022-11-20T08:58:56;43.83;;;18.37;;
19897;SDS011;10111;50.814;4.572;2022-11-20T09:01:24;41.03;;;18.10;;
19897;SDS011;10111;50.814;4.572;2022-11-20T09:03:49;38.40;;;16.50;;
19897;SDS011;10111;50.814;4.572;2022-11-20T09:06:15;47.57;;;18.50;;
19897;SDS011;10111;50.814;4.572;2022-11-20T09:08:41;34.90;;;15.77;;
19897;SDS011;10111;50.814;4.572;2022-11-20T09:11:07;40.03;;;17.27;;
19897;SDS011;10111;50.814;4.572;2022-11-20T09:13:33;38.23;;;17.17;;
19897;SDS011;10111;50.814;4.572;2022-11-20T09:16:04;45.73;;;18.67;;
19897;SDS011;10111;50.814;4.572;2022-11-20T09:18:32;39.33;;;17.53;;
19897;SDS011;10111;50.814;4.572;2022-11-20T09:21:02;36.37;;;18.10;;
19897;SDS011;10111;50.814;4.572;2022-11-20T09:23:33;35.80;;;16.50;;
19897;SDS011;10111;50.814;4.572;2022-11-20T09:26:03;35.73;;;15.27;;
19897;SDS011;10111;50.814;4.572;2022-11-20T09:28:30;36.23;;;15.73;;
19897;SDS011;10111;50.814;4.572;2022-11-20T09:30:56;42.47;;;17.27;;
19897;SDS011;10111;50.814;4.572;2022-11-20T09:33:22;36.60;;;16.30;;
19897;SDS011;10111;50.814;4.572;2022-11-20T09:35:47;37.10;;;17.13;;
19897;SDS011;10111;50.814;4.572;2022-11-20T09:38:13;35.10;;;14.83;;
19897;SDS011;10111;50.814;4.572;2022-11-20T09:40:48;39.60;;;18.33;;
19897;SDS011;10111;50.814;4.572;2022-11-20T09:43:32;32.27;;;14.90;;
19897;SDS011;10111;50.814;4.572;2022-11-20T09:56:39;29.73;;;13.87;;
19897;SDS011;10111;50.814;4.572;2022-11-20T09:59:07;33.70;;;13.40;;
19897;SDS011;10111;50.814;4.572;2022-11-20T10:01:44;29.70;;;13.70;;
19897;SDS011;10111;50.814;4.572;2022-11-20T10:04:15;34.50;;;13.63;;
19897;SDS011;10111;50.814;4.572;2022-11-20T10:06:55;24.47;;;12.60;;
19897;SDS011;10111;50.814;4.572;2022-11-20T10:09:31;28.00;;;13.23;;
19897;SDS011;10111;50.814;4.572;2022-11-20T10:12:12;27.80;;;13.83;;
19897;SDS011;10111;50.814;4.572;2022-11-20T10:18:08;24.03;;;12.97;;
19897;SDS011;10111;50.814;4.572;2022-11-20T10:20:47;22.93;;;10.90;;
19897;SDS011;10111;50.814;4.572;2022-11-20T10:26:26;20.03;;;11.47;;
19897;SDS011;10111;50.814;4.572;2022-11-20T10:29:09;20.70;;;10.50;;
19897;SDS011;10111;50.814;4.572;2022-11-20T10:31:41;18.17;;;9.47;;
19897;SDS011;10111;50.814;4.572;2022-11-20T10:34:23;15.90;;;9.30;;
19897;SDS011;10111;50.814;4.572;2022-11-20T10:37:17;15.73;;;8.50;;
19897;SDS011;10111;50.814;4.572;2022-11-20T10:39:52;11.30;;;6.73;;
19897;SDS011;10111;50.814;4.572;2022-11-20T10:42:37;12.07;;;6.83;;
19897;SDS011;10111;50.814;4.572;2022-11-20T10:45:16;14.83;;;7.67;;
19897;SDS011;10111;50.814;4.572;2022-11-20T10:47:45;11.60;;;6.23;;
19897;SDS011;10111;50.814;4.572;2022-11-20T10:50:11;10.13;;;5.97;;
19897;SDS011;10111;50.814;4.572;2022-11-20T10:55:33;9.33;;;5.07;;
19897;SDS011;10111;50.814;4.572;2022-11-20T10:58:45;13.17;;;6.03;;
19897;SDS011;10111;50.814;4.572;2022-11-20T11:01:16;9.60;;;5.07;;
19897;SDS011;10111;50.814;4.572;2022-11-20T11:03:43;6.10;;;3.90;;
19897;SDS011;10111;50.814;4.572;2022-11-20T11:06:15;11.30;;;4.63;;
19897;SDS011;10111;50.814;4.572;2022-11-20T11:08:50;8.87;;;4.53;;
19897;SDS011;10111;50.814;4.572;2022-11-20T11:11:23;6.80;;;4.07;;
19897;SDS011;10111;50.814;4.572;2022-11-20T11:13:51;4.37;;;2.97;;
19897;SDS011;10111;50.814;4.572;2022-11-20T11:16:19;4.90;;;2.90;;
19897;SDS011;10111;50.814;4.572;2022-11-20T11:18:47;7.03;;;3.57;;
19897;SDS011;10111;50.814;4.572;2022-11-20T11:21:13;5.57;;;2.93;;
19897;SDS011;10111;50.814;4.572;2022-11-20T11:23:56;5.97;;;2.83;;
19897;SDS011;10111;50.814;4.572;2022-11-20T11:26:27;6.17;;;3.47;;
19897;SDS011;10111;50.814;4.572;2022-11-20T11:28:53;5.90;;;3.60;;
19897;SDS011;10111;50.814;4.572;2022-11-20T11:31:31;4.63;;;2.77;;
19897;SDS011;10111;50.814;4.572;2022-11-20T11:36:38;3.23;;;2.40;;
19897;SDS011;10111;50.814;4.572;2022-11-20T11:39:05;4.43;;;2.60;;
19897;SDS011;10111;50.814;4.572;2022-11-20T11:41:34;4.70;;;2.40;;
19897;SDS011;10111;50.814;4.572;2022-11-20T11:44:19;2.37;;;2.10;;
19897;SDS011;10111;50.814;4.572;2022-11-20T11:47:24;3.93;;;1.93;;
19897;SDS011;10111;50.814;4.572;2022-11-20T11:50:15;5.83;;;2.20;;
19897;SDS011;10111;50.814;4.572;2022-11-20T11:52:56;2.97;;;1.90;;
19897;SDS011;10111;50.814;4.572;2022-11-20T11:55:31;5.53;;;2.27;;
19897;SDS011;10111;50.814;4.572;2022-11-20T12:01:00;2.83;;;1.70;;
19897;SDS011;10111;50.814;4.572;2022-11-20T12:03:36;6.07;;;2.20;;
19897;SDS011;10111;50.814;4.572;2022-11-20T12:06:25;2.17;;;1.70;;
19897;SDS011;10111;50.814;4.572;2022-11-20T12:08:51;3.00;;;2.60;;
19897;SDS011;10111;50.814;4.572;2022-11-20T12:16:37;3.30;;;1.63;;
19897;SDS011;10111;50.814;4.572;2022-11-20T12:19:04;10.03;;;2.93;;
19897;SDS011;10111;50.814;4.572;2022-11-20T12:21:43;3.90;;;2.40;;
19897;SDS011;10111;50.814;4.572;2022-11-20T12:24:27;2.77;;;2.13;;
19897;SDS011;10111;50.814;4.572;2022-11-20T12:47:42;10.17;;;3.37;;
19897;SDS011;10111;50.814;4.572;2022-11-20T12:54:05;5.10;;;2.20;;
19897;SDS011;10111;50.814;4.572;2022-11-20T12:56:47;5.13;;;3.00;;
19897;SDS011;10111;50.814;4.572;2022-11-20T13:07:54;3.93;;;2.57;;
19897;SDS011;10111;50.814;4.572;2022-11-20T13:10:33;4.40;;;4.07;;
19897;SDS011;10111;50.814;4.572;2022-11-20T13:13:17;4.13;;;2.73;;
19897;SDS011;10111;50.814;4.572;2022-11-20T13:15:56;9.03;;;5.80;;
19897;SDS011;10111;50.814;4.572;2022-11-20T13:18:23;4.80;;;4.27;;
19897;SDS011;10111;50.814;4.572;2022-11-20T13:20:49;4.43;;;2.77;;
19897;SDS011;10111;50.814;4.572;2022-11-20T13:23:25;2.20;;;2.00;;
19897;SDS011;10111;50.814;4.572;2022-11-20T13:26:05;5.07;;;3.00;;
19897;SDS011;10111;50.814;4.572;2022-11-20T13:28:46;7.30;;;4.20;;
19897;SDS011;10111;50.814;4.572;2022-11-20T13:31:30;4.40;;;3.33;;
19897;SDS011;10111;50.814;4.572;2022-11-20T13:34:00;3.93;;;2.27;;
19897;SDS011;10111;50.814;4.572;2022-11-20T13:36:29;4.90;;;2.53;;
19897;SDS011;10111;50.814;4.572;2022-11-20T13:38:57;2.97;;;2.23;;
19897;SDS011;10111;50.814;4.572;2022-11-20T13:41:27;5.47;;;2.30;;
19897;SDS011;10111;50.814;4.572;2022-11-20T13:44:44;3.80;;;2.50;;
19897;SDS011;10111;50.814;4.572;2022-11-20T13:47:20;2.73;;;2.23;;
19897;SDS011;10111;50.814;4.572;2022-11-20T13:49:47;4.53;;;2.90;;
19897;SDS011;10111;50.814;4.572;2022-11-20T14:02:43;5.30;;;3.53;;
19897;SDS011;10111;50.814;4.572;2022-11-20T14:05:16;3.07;;;2.40;;
19897;SDS011;10111;50.814;4.572;2022-11-20T14:07:47;4.67;;;2.67;;
19897;SDS011;10111;50.814;4.572;2022-11-20T14:12:48;2.90;;;2.33;;
19897;SDS011;10111;50.814;4.572;2022-11-20T14:15:26;3.20;;;2.03;;
19897;SDS011;10111;50.814;4.572;2022-11-20T14:17:56;2.33;;;2.20;;
19897;SDS011;10111;50.814;4.572;2022-11-20T14:20:26;3.97;;;2.37;;
19897;SDS011;10111;50.814;4.572;2022-11-20T14:22:54;3.00;;;2.10;;
19897;SDS011;10111;50.814;4.572;2022-11-20T14:25:21;5.60;;;2.50;;
19897;SDS011;10111;50.814;4.572;2022-11-20T14:27:52;1.80;;;1.70;;
19897;SDS011;10111;50.814;4.572;2022-11-20T14:30:21;4.47;;;4.03;;
19897;SDS011;10111;50.814;4.572;2022-11-20T14:32:53;4.33;;;2.70;;
19897;SDS011;10111;50.814;4.572;2022-11-20T14:35:25;1.87;;;1.77;;
19897;SDS011;10111;50.814;4.572;2022-11-20T14:37:52;2.60;;;2.40;;
19897;SDS011;10111;50.814;4.572;2022-11-20T14:43:00;3.00;;;2.13;;
19897;SDS011;10111;50.814;4.572;2022-11-20T14:45:29;1.70;;;1.43;;
19897;SDS011;10111;50.814;4.572;2022-11-20T14:47:56;2.37;;;1.90;;
19897;SDS011;10111;50.814;4.572;2022-11-20T14:50:26;4.70;;;2.27;;
19897;SDS011;10111;50.814;4.572;2022-11-20T14:52:53;4.10;;;2.17;;
19897;SDS011;10111;50.814;4.572;2022-11-20T14:55:38;1.87;;;1.70;;
19897;SDS011;10111;50.814;4.572;2022-11-20T14:58:25;2.73;;;2.20;;
19897;SDS011;10111;50.814;4.572;2022-11-20T15:00:56;1.90;;;1.77;;
19897;SDS011;10111;50.814;4.572;2022-11-20T15:03:32;1.90;;;1.70;;
19897;SDS011;10111;50.814;4.572;2022-11-20T15:06:03;4.57;;;2.07;;
19897;SDS011;10111;50.814;4.572;2022-11-20T15:08:31;2.27;;;2.07;;
19897;SDS011;10111;50.814;4.572;2022-11-20T15:10:56;2.87;;;2.63;;
19897;SDS011;10111;50.814;4.572;2022-11-20T15:13:32;3.57;;;2.70;;
19897;SDS011;10111;50.814;4.572;2022-11-20T15:16:03;5.00;;;4.03;;
19897;SDS011;10111;50.814;4.572;2022-11-20T15:18:38;3.73;;;3.17;;
19897;SDS011;10111;50.814;4.572;2022-11-20T15:21:16;4.13;;;3.50;;
19897;SDS011;10111;50.814;4.572;2022-11-20T15:23:44;4.10;;;3.37;;
19897;SDS011;10111;50.814;4.572;2022-11-20T15:26:10;2.90;;;2.10;;
19897;SDS011;10111;50.814;4.572;2022-11-20T15:28:43;6.70;;;3.03;;
19897;SDS011;10111;50.814;4.572;2022-11-20T15:31:12;4.07;;;3.17;;
19897;SDS011;10111;50.814;4.572;2022-11-20T15:33:40;5.67;;;3.80;;
19897;SDS011;10111;50.814;4.572;2022-11-20T15:36:06;3.57;;;2.93;;
19897;SDS011;10111;50.814;4.572;2022-11-20T15:38:31;3.80;;;3.33;;
19897;SDS011;10111;50.814;4.572;2022-11-20T15:40:57;3.50;;;3.20;;
19897;SDS011;10111;50.814;4.572;2022-11-20T15:43:22;4.10;;;3.63;;
19897;SDS011;10111;50.814;4.572;2022-11-20T15:45:53;4.63;;;3.83;;
19897;SDS011;10111;50.814;4.572;2022-11-20T15:48:45;6.07;;;3.30;;
19897;SDS011;10111;50.814;4.572;2022-11-20T15:51:19;3.83;;;3.10;;
19897;SDS011;10111;50.814;4.572;2022-11-20T15:53:51;5.07;;;3.57;;
19897;SDS011;10111;50.814;4.572;2022-11-20T15:56:16;3.80;;;3.50;;
19897;SDS011;10111;50.814;4.572;2022-11-20T15:58:42;4.80;;;3.40;;
19897;SDS011;10111;50.814;4.572;2022-11-20T16:01:12;8.63;;;3.37;;
19897;SDS011;10111;50.814;4.572;2022-11-20T16:03:39;7.33;;;4.93;;
19897;SDS011;10111;50.814;4.572;2022-11-20T16:06:05;4.57;;;4.17;;
19897;SDS011;10111;50.814;4.572;2022-11-20T16:08:31;3.50;;;3.00;;
19897;SDS011;10111;50.814;4.572;2022-11-20T16:10:56;8.93;;;3.17;;
19897;SDS011;10111;50.814;4.572;2022-11-20T16:13:22;6.20;;;5.60;;
19897;SDS011;10111;50.814;4.572;2022-11-20T16:16:18;9.47;;;3.90;;
19897;SDS011;10111;50.814;4.572;2022-11-20T16:18:46;3.90;;;3.27;;